createdAt,value
2022-09-01T00:00:33.547Z,61.84
2022-09-01T00:03:38.316Z,61.94
2022-09-01T00:06:40.282Z,62.02
2022-09-01T00:09:41.881Z,61.92
2022-09-01T00:12:44.850Z,61.95
2022-09-01T00:15:46.510Z,61.81
2022-09-01T00:18:51.874Z,61.79
2022-09-01T00:21:53.446Z,61.84
2022-09-01T00:24:56.060Z,61.74
2022-09-01T00:27:59.730Z,61.82
2022-09-01T00:31:02.382Z,62.00
2022-09-01T00:34:04.632Z,61.91
2022-09-01T00:37:06.347Z,61.83
2022-09-01T00:40:11.087Z,61.85
2022-09-01T00:43:20.550Z,61.95
2022-09-01T00:46:29.441Z,61.90
2022-09-01T00:49:37.599Z,62.01
2022-09-01T00:52:44.643Z,61.97
2022-09-01T00:55:46.229Z,61.94
2022-09-01T00:58:48.361Z,61.89
2022-09-01T01:01:50.323Z,62.06
2022-09-01T01:04:55.395Z,62.04
2022-09-01T01:07:57.063Z,62.00
2022-09-01T01:11:04.134Z,61.99
2022-09-01T01:14:11.524Z,61.94
2022-09-01T01:17:13.109Z,61.89
2022-09-01T01:20:37.443Z,61.82
2022-09-01T01:23:57.194Z,61.81
2022-09-01T01:26:59.539Z,61.75
2022-09-01T01:30:07.286Z,61.81
2022-09-01T01:33:11.599Z,61.84
2022-09-01T01:36:15.976Z,61.88
2022-09-01T01:39:22.073Z,61.84
2022-09-01T01:42:24.532Z,61.86
2022-09-01T01:45:27.058Z,61.84
2022-09-01T01:48:33.870Z,61.85
2022-09-01T01:51:36.410Z,61.90
2022-09-01T01:54:38.334Z,61.91
2022-09-01T01:57:41.135Z,61.85
2022-09-01T02:00:43.953Z,61.91
2022-09-01T02:03:45.615Z,61.92
2022-09-01T02:06:49.271Z,61.83
2022-09-01T02:09:51.675Z,61.85
2022-09-01T02:12:53.358Z,61.87
2022-09-01T02:15:57.572Z,61.91
2022-09-01T02:19:01.234Z,61.86
2022-09-01T02:22:02.995Z,61.90
2022-09-01T02:25:05.762Z,61.92
2022-09-01T02:28:09.516Z,62.01
2022-09-01T02:31:12.125Z,61.91
2022-09-01T02:34:14.304Z,62.03
2022-09-01T02:37:16.090Z,62.06
2022-09-01T02:40:17.881Z,62.02
2022-09-01T02:43:20.571Z,62.08
2022-09-01T02:46:22.891Z,62.05
2022-09-01T02:49:28.038Z,62.03
2022-09-01T02:52:34.903Z,62.01
2022-09-01T02:55:39.079Z,61.95
2022-09-01T02:58:46.233Z,61.98
2022-09-01T03:01:53.255Z,62.08
2022-09-01T03:04:55.297Z,62.02
2022-09-01T03:08:00.667Z,61.95
2022-09-01T03:11:02.376Z,62.05
2022-09-01T03:14:06.993Z,62.05
2022-09-01T03:17:08.595Z,62.03
2022-09-01T03:20:10.564Z,62.12
2022-09-01T03:23:19.491Z,62.21
2022-09-01T03:26:23.169Z,62.28
2022-09-01T03:29:24.888Z,62.21
2022-09-01T03:32:26.478Z,62.28
2022-09-01T03:35:31.262Z,62.23
2022-09-01T03:38:33.630Z,62.31
2022-09-01T03:41:37.418Z,62.31
2022-09-01T03:44:40.403Z,62.43
2022-09-01T03:47:42.810Z,62.29
2022-09-01T03:50:45.681Z,62.32
2022-09-01T03:53:48.382Z,62.31
2022-09-01T03:56:50.201Z,62.32
2022-09-01T03:59:53.607Z,62.32
2022-09-01T04:02:58.770Z,62.41
2022-09-01T04:06:01.795Z,62.35
2022-09-01T04:09:03.707Z,62.35
2022-09-01T04:12:08.369Z,62.40
2022-09-01T04:15:13.921Z,62.49
2022-09-01T04:18:20.860Z,62.49
2022-09-01T04:21:23.627Z,62.54
2022-09-01T04:24:30.399Z,62.46
2022-09-01T04:27:33.215Z,62.47
2022-09-01T04:30:36.206Z,62.52
2022-09-01T04:33:39.284Z,62.52
2022-09-01T04:36:44.190Z,62.47
2022-09-01T04:39:55.598Z,62.43
2022-09-01T04:42:57.961Z,62.48
2022-09-01T04:46:00.352Z,62.52
2022-09-01T04:49:07.538Z,62.57
2022-09-01T04:52:15.008Z,62.58
2022-09-01T04:55:16.880Z,62.54
2022-09-01T04:58:19.121Z,62.59
2022-09-01T05:01:24.421Z,62.63
2022-09-01T05:04:33.163Z,62.65
2022-09-01T05:07:37.336Z,62.67
2022-09-01T05:10:41.613Z,62.73
2022-09-01T05:13:56.965Z,62.70
2022-09-01T05:16:58.574Z,62.73
2022-09-01T05:20:01.641Z,62.75
2022-09-01T05:23:04.465Z,62.69
2022-09-01T05:26:16.491Z,62.80
2022-09-01T05:29:18.433Z,62.77
2022-09-01T05:32:25.329Z,62.80
2022-09-01T05:35:32.917Z,62.81
2022-09-01T05:38:34.949Z,62.83
2022-09-01T05:41:36.631Z,62.73
2022-09-01T05:44:43.556Z,62.74
2022-09-01T05:47:46.087Z,62.66
2022-09-01T05:50:49.021Z,62.71
2022-09-01T05:53:52.189Z,62.74
2022-09-01T05:57:08.205Z,62.53
2022-09-01T06:00:20.493Z,62.51
2022-09-01T06:03:24.245Z,62.53
2022-09-01T06:06:28.170Z,62.57
2022-09-01T06:09:29.978Z,62.64
2022-09-01T06:12:33.786Z,62.70
2022-09-01T06:15:40.744Z,62.59
2022-09-01T06:18:43.172Z,62.55
2022-09-01T06:21:44.948Z,62.53
2022-09-01T06:24:53.312Z,62.39
2022-09-01T06:27:58.108Z,62.39
2022-09-01T06:31:06.202Z,62.44
2022-09-01T06:34:10.072Z,62.25
2022-09-01T06:37:12.657Z,62.08
2022-09-01T06:40:17.297Z,61.92
2022-09-01T06:43:19.699Z,61.83
2022-09-01T06:46:30.893Z,61.96
2022-09-01T06:49:36.367Z,61.75
2022-09-01T06:56:14.085Z,61.52
2022-09-01T06:59:17.361Z,61.08
2022-09-01T07:02:26.623Z,60.71
2022-09-01T07:18:44.849Z,59.62
2022-09-01T07:23:03.636Z,59.33
2022-09-01T07:26:02.892Z,59.10
2022-09-01T07:29:12.382Z,58.96
2022-09-01T07:35:39.387Z,58.55
2022-09-01T07:50:11.356Z,57.48
2022-09-01T07:53:01.351Z,57.11
2022-09-01T07:56:10.628Z,57.01
2022-09-01T07:59:17.764Z,56.79
2022-09-01T08:02:24.984Z,56.45
2022-09-01T08:05:28.315Z,56.22
2022-09-01T08:08:30.463Z,56.00
2022-09-01T08:12:00.999Z,55.59
2022-09-01T08:18:17.477Z,54.94
2022-09-01T08:21:22.813Z,54.53
2022-09-01T08:24:37.421Z,54.23
2022-09-01T08:27:39.040Z,54.07
2022-09-01T08:30:42.249Z,53.81
2022-09-01T08:33:54.693Z,53.72
2022-09-01T08:36:56.282Z,53.50
2022-09-01T08:39:58.076Z,53.33
2022-09-01T08:43:25.173Z,53.27
2022-09-01T08:46:38.522Z,53.08
2022-09-01T08:49:45.078Z,52.95
2022-09-01T08:53:09.994Z,52.82
2022-09-01T08:56:13.095Z,52.62
2022-09-01T08:59:15.640Z,52.42
2022-09-01T09:03:19.855Z,52.33
2022-09-01T09:06:29.311Z,51.80
2022-09-01T09:09:53.994Z,51.43
2022-09-01T09:13:16.018Z,50.85
2022-09-01T09:16:25.700Z,50.76
2022-09-01T09:19:38.980Z,50.21
2022-09-01T09:22:42.481Z,49.70
2022-09-01T09:25:44.112Z,49.45
2022-09-01T09:28:49.394Z,49.21
2022-09-01T09:32:06.930Z,48.94
2022-09-01T09:35:32.468Z,48.67
2022-09-01T09:38:33.997Z,48.54
2022-09-01T09:41:39.829Z,48.12
2022-09-01T09:44:48.993Z,47.73
2022-09-01T09:47:51.951Z,46.98
2022-09-01T09:50:53.563Z,46.97
2022-09-01T09:54:14.366Z,47.08
2022-09-01T09:57:17.828Z,47.15
2022-09-01T10:00:23.883Z,47.20
2022-09-01T10:03:41.648Z,47.18
2022-09-01T10:06:45.441Z,47.43
2022-09-01T10:09:49.093Z,47.50
2022-09-01T10:12:55.039Z,47.27
2022-09-01T10:16:00.446Z,47.09
2022-09-01T10:19:12.644Z,46.50
2022-09-01T10:22:15.230Z,46.64
2022-09-01T10:25:20.437Z,46.23
2022-09-01T10:28:23.905Z,45.59
2022-09-01T10:31:29.558Z,45.29
2022-09-01T10:34:38.383Z,44.93
2022-09-01T10:37:41.563Z,44.98
2022-09-01T10:40:49.641Z,44.99
2022-09-01T10:43:51.672Z,44.78
2022-09-01T10:46:59.837Z,44.21
2022-09-01T10:50:22.786Z,44.27
2022-09-01T10:53:34.061Z,44.00
2022-09-01T10:56:52.038Z,43.90
2022-09-01T10:59:57.372Z,43.79
2022-09-01T11:06:42.353Z,43.33
2022-09-01T11:10:11.738Z,42.76
2022-09-01T11:13:28.782Z,42.61
2022-09-01T11:16:51.647Z,42.66
2022-09-01T11:19:55.563Z,42.40
2022-09-01T11:23:04.967Z,42.06
2022-09-01T11:26:31.930Z,41.76
2022-09-01T11:29:55.725Z,41.57
2022-09-01T11:33:15.723Z,41.52
2022-09-01T11:36:18.309Z,41.28
2022-09-01T11:39:22.577Z,41.08
2022-09-01T11:42:43.888Z,40.70
2022-09-01T11:46:06.428Z,40.51
2022-09-01T11:49:26.257Z,40.75
2022-09-01T11:52:35.266Z,40.21
2022-09-01T11:55:48.972Z,39.89
2022-09-01T11:58:51.075Z,39.73
2022-09-01T12:01:57.578Z,39.55
2022-09-01T12:05:01.701Z,39.65
2022-09-01T12:08:13.311Z,40.17
2022-09-01T12:11:21.953Z,40.16
2022-09-01T12:14:23.548Z,40.39
2022-09-01T12:17:25.660Z,39.95
2022-09-01T12:20:37.984Z,39.92
2022-09-01T12:23:42.601Z,39.88
2022-09-01T12:26:46.365Z,39.78
2022-09-01T12:29:50.415Z,39.85
2022-09-01T12:33:22.861Z,39.79
2022-09-01T12:36:35.447Z,39.26
2022-09-01T12:39:44.818Z,39.12
2022-09-01T12:42:52.074Z,38.86
2022-09-01T12:45:53.796Z,38.83
2022-09-01T12:52:25.843Z,39.21
2022-09-01T12:59:14.298Z,39.18
2022-09-01T13:02:34.609Z,39.44
2022-09-01T13:05:42.593Z,39.43
2022-09-01T13:08:44.468Z,38.97
2022-09-01T13:12:06.304Z,39.39
2022-09-01T13:15:09.053Z,39.34
2022-09-01T13:18:11.595Z,39.05
2022-09-01T13:21:14.570Z,39.57
2022-09-01T13:24:17.317Z,39.48
2022-09-01T13:27:20.637Z,39.57
2022-09-01T13:30:27.763Z,39.65
2022-09-01T13:33:30.543Z,39.81
2022-09-01T13:36:51.458Z,39.67
2022-09-01T13:39:53.518Z,39.75
2022-09-01T13:42:55.140Z,39.85
2022-09-01T13:45:56.875Z,39.64
2022-09-01T13:49:04.853Z,39.61
2022-09-01T13:52:22.338Z,39.61
2022-09-01T13:55:26.817Z,39.58
2022-09-01T13:58:40.632Z,39.19
2022-09-01T14:01:42.307Z,39.15
2022-09-01T14:04:43.979Z,39.02
2022-09-01T14:07:46.007Z,39.14
2022-09-01T14:10:50.133Z,38.90
2022-09-01T14:13:52.070Z,38.91
2022-09-01T14:16:53.713Z,38.73
2022-09-01T14:19:56.734Z,38.98
2022-09-01T14:22:58.898Z,38.93
2022-09-01T14:26:00.765Z,38.96
2022-09-01T14:29:02.491Z,38.83
2022-09-01T14:32:04.539Z,38.73
2022-09-01T14:35:20.011Z,38.66
2022-09-01T14:38:22.066Z,38.89
2022-09-01T14:41:26.445Z,38.96
2022-09-01T14:44:28.895Z,39.60
2022-09-01T14:47:31.314Z,39.57
2022-09-01T14:50:40.664Z,39.67
2022-09-01T14:53:42.383Z,40.17
2022-09-01T14:57:28.165Z,40.07
2022-09-01T15:00:09.883Z,40.31
2022-09-01T15:03:11.699Z,40.68
2022-09-01T15:06:15.897Z,40.26
2022-09-01T15:09:20.173Z,40.36
2022-09-01T15:12:22.589Z,40.65
2022-09-01T15:15:26.147Z,40.72
2022-09-01T15:18:28.263Z,41.11
2022-09-01T15:21:31.425Z,41.33
2022-09-01T15:24:33.491Z,41.50
2022-09-01T15:27:38.270Z,41.79
2022-09-01T15:30:45.072Z,41.91
2022-09-01T15:33:48.306Z,42.21
2022-09-01T15:36:49.850Z,42.49
2022-09-01T15:40:03.535Z,42.79
2022-09-01T15:43:12.153Z,42.99
2022-09-01T15:46:14.294Z,43.30
2022-09-01T15:49:17.416Z,43.23
2022-09-01T15:52:20.422Z,43.29
2022-09-01T15:55:26.494Z,43.59
2022-09-01T15:58:39.118Z,43.46
2022-09-01T16:01:52.442Z,43.48
2022-09-01T16:05:02.230Z,43.59
2022-09-01T16:08:07.745Z,43.47
2022-09-01T16:11:11.538Z,43.59
2022-09-01T16:14:14.238Z,43.68
2022-09-01T16:17:25.473Z,43.72
2022-09-01T16:20:40.613Z,43.75
2022-09-01T16:23:48.147Z,43.52
2022-09-01T16:26:50.690Z,43.72
2022-09-01T16:29:58.156Z,44.11
2022-09-01T16:33:03.579Z,44.47
2022-09-01T16:36:30.177Z,44.70
2022-09-01T16:39:50.921Z,45.11
2022-09-01T16:43:00.760Z,45.12
2022-09-01T16:46:31.571Z,45.38
2022-09-01T16:49:52.801Z,45.59
2022-09-01T16:53:14.525Z,45.66
2022-09-01T16:56:32.788Z,45.54
2022-09-01T16:59:43.038Z,45.53
2022-09-01T17:02:59.291Z,45.65
2022-09-01T17:06:13.792Z,45.83
2022-09-01T17:09:28.953Z,45.92
2022-09-01T17:12:41.572Z,46.14
2022-09-01T17:15:49.831Z,46.31
2022-09-01T17:18:54.190Z,46.47
2022-09-01T17:22:07.806Z,46.67
2022-09-01T17:25:18.882Z,46.97
2022-09-01T17:28:33.670Z,47.28
2022-09-01T17:31:38.112Z,47.55
2022-09-01T17:35:07.058Z,47.70
2022-09-01T17:38:31.525Z,47.83
2022-09-01T17:41:59.156Z,48.20
2022-09-01T17:45:14.672Z,48.50
2022-09-01T17:48:47.745Z,48.71
2022-09-01T17:52:26.607Z,48.83
2022-09-01T17:55:42.039Z,49.10
2022-09-01T17:58:55.779Z,49.25
2022-09-01T18:02:09.618Z,49.48
2022-09-01T18:05:19.248Z,49.69
2022-09-01T18:08:39.563Z,49.85
2022-09-01T18:11:50.435Z,49.97
2022-09-01T18:15:10.321Z,50.04
2022-09-01T18:18:37.392Z,50.02
2022-09-01T18:21:49.435Z,50.08
2022-09-01T18:24:57.017Z,50.23
2022-09-01T18:27:58.682Z,50.31
2022-09-01T18:31:28.881Z,50.47
2022-09-01T18:34:48.902Z,50.72
2022-09-01T18:38:00.698Z,50.79
2022-09-01T18:41:21.737Z,50.80
2022-09-01T18:45:09.542Z,50.83
2022-09-01T18:48:30.076Z,50.88
2022-09-01T18:51:55.940Z,50.93
2022-09-01T18:55:37.529Z,51.11
2022-09-01T18:59:10.030Z,51.02
2022-09-01T19:02:30.036Z,51.08
2022-09-01T19:05:45.553Z,51.23
2022-09-01T19:08:51.688Z,51.26
2022-09-01T19:12:05.226Z,51.36
2022-09-01T19:15:15.737Z,51.26
2022-09-01T19:18:25.870Z,51.35
2022-09-01T19:21:31.701Z,51.43
2022-09-01T19:24:41.149Z,51.32
2022-09-01T19:27:55.741Z,51.41
2022-09-01T19:31:09.628Z,51.93
2022-09-01T19:34:14.847Z,51.49
2022-09-01T19:37:20.810Z,51.56
2022-09-01T19:40:28.815Z,51.46
2022-09-01T19:43:35.791Z,51.36
2022-09-01T19:46:46.373Z,51.23
2022-09-01T19:50:01.336Z,51.21
2022-09-01T19:53:06.825Z,51.25
2022-09-01T19:56:24.059Z,51.31
2022-09-01T19:59:46.879Z,51.29
2022-09-01T20:03:17.386Z,51.24
2022-09-01T20:06:41.190Z,51.50
2022-09-01T20:09:53.226Z,51.83
2022-09-01T20:12:54.835Z,51.65
2022-09-01T20:16:08.632Z,51.78
2022-09-01T20:19:16.089Z,51.96
2022-09-01T20:22:24.747Z,52.01
2022-09-01T20:25:42.912Z,52.01
2022-09-01T20:29:11.450Z,52.04
2022-09-01T20:32:27.066Z,52.14
2022-09-01T20:35:40.079Z,52.04
2022-09-01T20:39:11.502Z,52.05
2022-09-01T20:42:38.630Z,52.03
2022-09-01T20:45:45.109Z,52.13
2022-09-01T20:48:47.706Z,52.03
2022-09-01T20:52:04.730Z,52.24
2022-09-01T20:55:16.340Z,52.33
2022-09-01T20:59:14.840Z,52.35
2022-09-01T21:02:26.137Z,52.40
2022-09-01T21:05:51.992Z,52.28
2022-09-01T21:09:12.864Z,52.44
2022-09-01T21:12:39.543Z,52.58
2022-09-01T21:15:59.419Z,52.52
2022-09-01T21:19:04.305Z,52.70
2022-09-01T21:22:10.579Z,52.81
2022-09-01T21:25:12.133Z,52.83
2022-09-01T21:28:19.636Z,52.97
2022-09-01T21:31:25.555Z,53.12
2022-09-01T21:34:27.393Z,53.11
2022-09-01T21:37:29.086Z,53.15
2022-09-01T21:40:30.722Z,53.21
2022-09-01T21:43:35.457Z,53.35
2022-09-01T21:46:37.384Z,53.27
2022-09-01T21:49:41.878Z,53.30
2022-09-01T21:52:43.720Z,53.47
2022-09-01T21:55:47.740Z,53.57
2022-09-01T21:58:51.733Z,53.55
2022-09-01T22:01:53.751Z,53.51
2022-09-01T22:04:55.649Z,53.59
2022-09-01T22:07:57.834Z,53.71
2022-09-01T22:10:59.328Z,53.75
2022-09-01T22:14:01.030Z,53.89
2022-09-01T22:17:04.416Z,54.04
2022-09-01T22:20:08.917Z,54.10
2022-09-01T22:23:11.978Z,54.11
2022-09-01T22:26:24.292Z,54.17
2022-09-01T22:29:25.802Z,54.17
2022-09-01T22:32:32.850Z,54.34
2022-09-01T22:35:40.217Z,54.35
2022-09-01T22:38:41.767Z,54.48
2022-09-01T22:41:43.313Z,54.52
2022-09-01T22:44:44.974Z,54.57
2022-09-01T22:47:46.542Z,54.54
2022-09-01T22:50:49.400Z,54.67
2022-09-01T22:53:51.002Z,54.76
2022-09-01T22:56:53.368Z,54.70
2022-09-01T22:59:57.845Z,54.81
2022-09-01T23:03:00.659Z,54.86
2022-09-01T23:06:09.741Z,54.82
2022-09-01T23:09:11.937Z,54.93
2022-09-01T23:12:13.662Z,55.05
2022-09-01T23:15:16.861Z,55.17
2022-09-01T23:18:18.677Z,55.16
2022-09-01T23:21:25.889Z,55.28
2022-09-01T23:24:27.626Z,55.33
2022-09-01T23:27:29.244Z,55.30
2022-09-01T23:30:30.848Z,55.27
2022-09-01T23:33:32.441Z,55.27
2022-09-01T23:36:35.341Z,55.07
2022-09-01T23:39:36.876Z,55.14
2022-09-01T23:42:38.434Z,55.23
2022-09-01T23:45:43.087Z,55.03
2022-09-01T23:48:44.872Z,55.08
2022-09-01T23:51:48.403Z,55.04
2022-09-01T23:54:49.976Z,54.93
2022-09-01T23:57:51.604Z,54.94
